Time;durP1;ratioP1;P1;durP2;ratioP2;P2;SDS_P1;SDS_P2;PMS_P1;PMS_P2;Temp;Humidity;BMP_temperature;BMP_pressure;BME280_temperature;BME280_humidity;BME280_pressure;Samples;Min_cycle;Max_cycle;Signal;HPM_P1;HPM_P2
2023/06/27 00:01:14;;;;;;;3.70;2.03;;;16.10;99.90;;;;;;5051843;28;20037;-78
2023/06/27 00:03:40;;;;;;;3.90;2.33;;;16.00;99.90;;;;;;5054027;28;20044;-78
2023/06/27 00:06:05;;;;;;;3.83;2.38;;;16.00;99.90;;;;;;5053148;28;20040;-78
2023/06/27 00:08:34;;;;;;;3.13;2.00;;;15.90;99.90;;;;;;5054069;28;20044;-78
2023/06/27 00:11:00;;;;;;;4.57;2.00;;;15.90;99.90;;;;;;5070842;28;20045;-77
2023/06/27 00:13:27;;;;;;;6.72;2.22;;;15.80;99.90;;;;;;5071000;28;20052;-77
2023/06/27 00:15:52;;;;;;;4.80;2.10;;;15.80;99.90;;;;;;5054381;28;20036;-78
2023/06/27 00:18:22;;;;;;;5.05;2.67;;;15.80;99.90;;;;;;5070553;28;20039;-77
2023/06/27 00:20:51;;;;;;;6.68;2.30;;;15.80;99.90;;;;;;5054498;28;20496;-77
2023/06/27 00:23:23;;;;;;;5.07;2.08;;;15.80;99.90;;;;;;5069843;28;20127;-78
2023/06/27 00:25:48;;;;;;;4.72;2.28;;;15.70;99.90;;;;;;5038386;28;20561;-77
2023/06/27 00:28:14;;;;;;;6.45;2.30;;;15.70;99.90;;;;;;5053735;28;20041;-78
2023/06/27 00:30:40;;;;;;;4.57;2.22;;;15.70;99.90;;;;;;5053957;28;20475;-77
2023/06/27 00:33:09;;;;;;;6.75;2.35;;;15.70;99.90;;;;;;5053121;28;20067;-77
2023/06/27 00:35:35;;;;;;;4.22;2.33;;;15.70;99.90;;;;;;5053864;28;20047;-78
2023/06/27 00:38:02;;;;;;;6.78;2.80;;;15.70;99.90;;;;;;5054219;28;20036;-77
2023/06/27 00:40:27;;;;;;;3.90;2.60;;;15.60;99.90;;;;;;5053825;28;20684;-78
2023/06/27 00:42:53;;;;;;;4.70;2.67;;;15.60;99.90;;;;;;5052818;28;20033;-78
2023/06/27 00:45:22;;;;;;;7.25;2.83;;;15.60;99.90;;;;;;5054176;28;20497;-78
2023/06/27 00:47:47;;;;;;;6.13;2.85;;;15.50;99.90;;;;;;5053042;28;20385;-78
2023/06/27 00:50:13;;;;;;;6.15;2.95;;;15.50;99.90;;;;;;5053805;28;20036;-77
2023/06/27 00:52:40;;;;;;;5.30;3.00;;;15.50;99.90;;;;;;5052396;28;20041;-77
2023/06/27 00:55:07;;;;;;;4.63;2.50;;;15.50;99.90;;;;;;5053727;28;20029;-78
2023/06/27 00:57:33;;;;;;;5.13;2.65;;;15.40;99.90;;;;;;5038256;28;20071;-77
2023/06/27 00:59:59;;;;;;;3.92;2.42;;;15.40;99.90;;;;;;5071702;28;20676;-77
2023/06/27 01:02:25;;;;;;;5.43;2.72;;;15.40;99.90;;;;;;5071470;28;20041;-77
2023/06/27 01:04:52;;;;;;;6.43;2.70;;;15.30;99.90;;;;;;5074758;28;20045;-77
2023/06/27 01:07:36;;;;;;;4.65;2.63;;;15.30;99.90;;;;;;5072543;28;20056;-77
2023/06/27 01:10:21;;;;;;;4.65;2.40;;;15.30;99.90;;;;;;5072407;28;20037;-76
2023/06/27 01:13:06;;;;;;;8.43;2.90;;;15.30;99.90;;;;;;5054805;28;20037;-77
2023/06/27 01:15:32;;;;;;;6.50;2.80;;;15.30;99.90;;;;;;5060587;28;20037;-77
2023/06/27 01:17:59;;;;;;;5.32;2.35;;;15.30;99.90;;;;;;5070695;28;20121;-77
2023/06/27 01:20:25;;;;;;;7.50;2.80;;;15.20;99.90;;;;;;5068044;28;20044;-76
2023/06/27 01:23:09;;;;;;;4.00;2.45;;;15.20;99.90;;;;;;5052121;28;21650;-77
2023/06/27 01:25:37;;;;;;;6.53;2.78;;;15.20;99.90;;;;;;5037052;28;20037;-77
2023/06/27 01:28:03;;;;;;;5.60;2.80;;;15.20;99.90;;;;;;5053995;28;20036;-77
2023/06/27 01:30:33;;;;;;;5.95;2.53;;;15.20;99.90;;;;;;5051057;28;20083;-77
2023/06/27 01:33:11;;;;;;;4.80;2.70;;;15.20;99.90;;;;;;5050901;28;20037;-77
2023/06/27 01:35:56;;;;;;;6.50;2.75;;;15.10;99.90;;;;;;5034640;28;20037;-77
2023/06/27 01:38:29;;;;;;;4.97;2.42;;;15.10;99.90;;;;;;5057343;28;20094;-77
2023/06/27 01:40:57;;;;;;;5.57;3.00;;;15.10;99.90;;;;;;5067688;28;20040;-77
2023/06/27 01:43:24;;;;;;;3.40;2.40;;;15.10;99.90;;;;;;5052267;28;20041;-77
2023/06/27 01:45:50;;;;;;;5.60;2.65;;;15.00;99.90;;;;;;5051075;28;20068;-77
2023/06/27 01:48:17;;;;;;;4.38;2.50;;;15.00;99.90;;;;;;5043888;28;20064;-77
2023/06/27 01:50:42;;;;;;;4.55;2.50;;;15.00;99.90;;;;;;5052529;28;20033;-77
2023/06/27 01:53:08;;;;;;;9.15;2.65;;;15.00;99.90;;;;;;5053422;28;20071;-77
2023/06/27 01:55:33;;;;;;;3.83;2.72;;;15.00;99.90;;;;;;5052885;28;20033;-77
2023/06/27 01:57:59;;;;;;;5.03;2.22;;;15.00;99.90;;;;;;5051394;28;20038;-77
2023/06/27 02:00:25;;;;;;;6.60;2.60;;;15.00;99.90;;;;;;5052737;28;20056;-77
2023/06/27 02:02:50;;;;;;;4.53;2.40;;;15.00;99.90;;;;;;5053122;28;20040;-77
2023/06/27 02:05:16;;;;;;;4.68;2.83;;;15.00;99.90;;;;;;5052830;28;20080;-78
2023/06/27 02:07:42;;;;;;;6.40;2.80;;;15.00;99.90;;;;;;5052750;28;20045;-78
2023/06/27 02:10:08;;;;;;;4.82;2.90;;;15.00;99.90;;;;;;5053215;28;20033;-78
2023/06/27 02:12:33;;;;;;;4.40;2.58;;;14.90;99.90;;;;;;5053212;28;20496;-77
2023/06/27 02:14:59;;;;;;;5.22;2.95;;;14.90;99.90;;;;;;5054763;28;20037;-77
2023/06/27 02:17:24;;;;;;;6.90;2.55;;;14.90;99.90;;;;;;5053435;28;20631;-77
2023/06/27 02:19:50;;;;;;;4.45;2.60;;;14.90;99.90;;;;;;5053408;28;20099;-77
2023/06/27 02:22:15;;;;;;;6.68;3.15;;;14.90;99.90;;;;;;5052438;28;20045;-77
2023/06/27 02:24:41;;;;;;;3.63;2.47;;;14.90;99.90;;;;;;5052631;28;20492;-77
2023/06/27 02:27:06;;;;;;;4.45;2.40;;;14.80;99.90;;;;;;5053181;28;20037;-77
2023/06/27 02:29:32;;;;;;;4.40;2.65;;;14.90;99.90;;;;;;5053029;28;20037;-77
2023/06/27 02:31:57;;;;;;;5.47;2.50;;;14.80;99.90;;;;;;5052620;28;20041;-77
2023/06/27 02:34:23;;;;;;;4.20;2.40;;;14.80;99.90;;;;;;5050842;28;20037;-77
2023/06/27 02:36:48;;;;;;;4.75;2.55;;;14.80;99.90;;;;;;5066316;28;20087;-77
2023/06/27 02:39:14;;;;;;;6.50;2.63;;;14.80;99.90;;;;;;5062658;28;20890;-77
2023/06/27 02:41:40;;;;;;;4.65;2.80;;;14.80;99.90;;;;;;5053695;28;20060;-77
2023/06/27 02:44:05;;;;;;;4.60;2.60;;;14.80;99.90;;;;;;5050737;28;20131;-77
2023/06/27 02:46:31;;;;;;;5.82;2.65;;;14.80;99.90;;;;;;5035928;28;20037;-77
2023/06/27 02:48:56;;;;;;;4.10;2.50;;;14.80;99.90;;;;;;5036375;28;20025;-77
2023/06/27 02:51:23;;;;;;;9.40;2.50;;;14.70;99.90;;;;;;5052776;28;20033;-77
2023/06/27 02:53:48;;;;;;;5.55;2.63;;;14.70;99.90;;;;;;5042956;28;20139;-77
2023/06/27 02:56:14;;;;;;;3.97;2.50;;;14.70;99.90;;;;;;5054417;28;20134;-77
2023/06/27 02:58:39;;;;;;;4.43;2.75;;;14.60;99.90;;;;;;5053496;28;20063;-77
2023/06/27 03:01:08;;;;;;;5.20;2.67;;;14.70;99.90;;;;;;5054320;28;20049;-77
2023/06/27 03:03:34;;;;;;;4.03;2.30;;;14.70;99.90;;;;;;5051858;28;20041;-77
2023/06/27 03:06:03;;;;;;;5.90;2.78;;;14.60;99.90;;;;;;5054529;28;20037;-78
2023/06/27 03:08:30;;;;;;;4.85;2.38;;;14.60;99.90;;;;;;5037790;28;20037;-77
2023/06/27 03:10:56;;;;;;;5.72;2.40;;;14.60;99.90;;;;;;5052992;28;20080;-77
2023/06/27 03:13:22;;;;;;;4.88;2.50;;;14.60;99.90;;;;;;5055254;28;20080;-77
2023/06/27 03:15:47;;;;;;;6.05;2.65;;;14.60;99.90;;;;;;5076731;28;20036;-77
2023/06/27 03:18:13;;;;;;;5.40;2.60;;;14.60;99.90;;;;;;5052410;28;20127;-78
2023/06/27 03:20:38;;;;;;;3.08;2.30;;;14.60;99.90;;;;;;5053734;28;20037;-77
2023/06/27 03:23:04;;;;;;;6.38;2.88;;;14.60;99.90;;;;;;5054620;28;20041;-78
2023/06/27 03:25:29;;;;;;;8.20;3.15;;;14.60;99.90;;;;;;5038263;28;20041;-78
2023/06/27 03:27:55;;;;;;;4.57;2.63;;;14.60;99.90;;;;;;5053104;28;20048;-78
2023/06/27 03:30:20;;;;;;;5.32;2.55;;;14.60;99.90;;;;;;5053636;28;20037;-77
2023/06/27 03:32:46;;;;;;;5.78;2.70;;;14.60;99.90;;;;;;5054326;28;20552;-77
2023/06/27 03:35:11;;;;;;;5.78;3.03;;;14.60;99.90;;;;;;5053890;28;20059;-77
2023/06/27 03:37:37;;;;;;;5.45;3.10;;;14.50;99.90;;;;;;5051013;28;20037;-77
2023/06/27 03:40:03;;;;;;;6.05;2.70;;;14.60;99.90;;;;;;5051103;28;20404;-77
2023/06/27 03:42:29;;;;;;;6.38;2.70;;;14.60;99.90;;;;;;5051998;28;20044;-78
2023/06/27 03:44:55;;;;;;;5.10;2.75;;;14.60;99.90;;;;;;5050821;28;20045;-77
2023/06/27 03:47:23;;;;;;;6.40;2.80;;;14.60;99.90;;;;;;5035248;28;20040;-77
2023/06/27 03:49:48;;;;;;;6.95;3.08;;;14.60;99.90;;;;;;5066728;28;20033;-77
2023/06/27 03:52:14;;;;;;;5.25;2.90;;;14.60;99.90;;;;;;5036190;28;20052;-77
2023/06/27 03:54:39;;;;;;;4.97;2.45;;;14.70;99.90;;;;;;5051625;28;20040;-77
2023/06/27 03:57:05;;;;;;;7.70;3.08;;;14.60;99.90;;;;;;5052256;28;20049;-78
2023/06/27 03:59:31;;;;;;;8.35;3.47;;;14.70;99.90;;;;;;5051075;28;20099;-78
2023/06/27 04:01:56;;;;;;;5.03;2.90;;;14.70;99.90;;;;;;5068809;28;20037;-77
2023/06/27 04:04:22;;;;;;;4.93;2.72;;;14.70;99.90;;;;;;5048866;28;20044;-77
2023/06/27 04:06:47;;;;;;;6.07;2.80;;;14.70;99.90;;;;;;5052622;28;20033;-78
2023/06/27 04:09:13;;;;;;;6.93;3.38;;;14.80;99.90;;;;;;5051493;28;20113;-77
2023/06/27 04:11:38;;;;;;;3.92;2.70;;;14.90;99.90;;;;;;5053563;28;20120;-77
2023/06/27 04:14:04;;;;;;;6.35;3.20;;;14.90;99.90;;;;;;5052555;28;20082;-77
2023/06/27 04:16:29;;;;;;;7.68;3.28;;;14.90;99.90;;;;;;5053764;28;20033;-77
2023/06/27 04:18:55;;;;;;;7.32;3.10;;;14.90;99.90;;;;;;5053734;28;20037;-77
2023/06/27 04:21:24;;;;;;;6.35;2.88;;;15.00;99.90;;;;;;5052801;28;20393;-78
2023/06/27 04:23:50;;;;;;;5.82;2.85;;;15.00;99.90;;;;;;5053208;28;20037;-78
2023/06/27 04:26:17;;;;;;;5.85;3.03;;;15.10;99.90;;;;;;5053053;28;20089;-77
2023/06/27 04:28:43;;;;;;;5.32;2.88;;;15.10;99.90;;;;;;5050769;28;20048;-77
2023/06/27 04:31:09;;;;;;;3.60;2.40;;;15.10;99.90;;;;;;5053708;28;20039;-77
2023/06/27 04:33:39;;;;;;;4.72;2.65;;;15.20;99.90;;;;;;5054034;28;20127;-78
2023/06/27 04:36:15;;;;;;;5.78;2.67;;;15.20;99.90;;;;;;5029235;28;20057;-77
2023/06/27 04:38:43;;;;;;;9.00;3.15;;;15.30;99.90;;;;;;5057282;28;20052;-77
2023/06/27 04:41:10;;;;;;;4.45;2.40;;;15.30;99.90;;;;;;5055809;28;20041;-78
2023/06/27 04:43:39;;;;;;;5.07;2.97;;;15.40;99.90;;;;;;5055277;28;20044;-77
2023/06/27 04:46:04;;;;;;;3.88;2.45;;;15.50;99.90;;;;;;5055378;28;20045;-78
2023/06/27 04:48:30;;;;;;;5.28;2.78;;;15.60;99.90;;;;;;5056142;28;20128;-78
2023/06/27 04:50:56;;;;;;;6.82;2.90;;;15.60;99.90;;;;;;5073602;28;20045;-78
2023/06/27 04:53:22;;;;;;;5.55;2.90;;;15.70;99.90;;;;;;5048070;28;20025;-77
2023/06/27 04:55:48;;;;;;;4.65;2.47;;;15.80;99.90;;;;;;5065888;28;20033;-78
2023/06/27 04:58:14;;;;;;;6.13;2.40;;;15.90;99.90;;;;;;5055833;28;20041;-77
2023/06/27 05:00:40;;;;;;;7.07;2.60;;;15.90;99.90;;;;;;5053935;28;20068;-77
2023/06/27 05:03:05;;;;;;;4.32;2.10;;;16.00;99.90;;;;;;5053837;28;20053;-77
2023/06/27 05:05:34;;;;;;;9.07;3.20;;;16.20;99.90;;;;;;5070966;28;20408;-78
2023/06/27 05:08:03;;;;;;;8.18;2.55;;;16.20;99.90;;;;;;5069261;28;20036;-77
2023/06/27 05:10:30;;;;;;;9.55;2.25;;;16.30;99.90;;;;;;5052974;28;20512;-77
2023/06/27 05:12:56;;;;;;;4.63;2.47;;;16.40;99.90;;;;;;5051349;28;20187;-78
2023/06/27 05:15:22;;;;;;;7.55;2.40;;;16.50;99.90;;;;;;5061983;28;20076;-77
2023/06/27 05:18:05;;;;;;;5.78;2.92;;;16.60;99.90;;;;;;5064894;28;20122;-78
2023/06/27 05:20:31;;;;;;;4.82;2.10;;;16.70;99.90;;;;;;5045029;28;20047;-78
2023/06/27 05:22:56;;;;;;;4.03;2.17;;;16.70;99.90;;;;;;5051677;28;20153;-77
2023/06/27 05:25:22;;;;;;;6.80;2.25;;;16.80;99.90;;;;;;5052885;28;20040;-78
2023/06/27 05:27:47;;;;;;;4.50;2.20;;;16.90;99.90;;;;;;5068601;28;20479;-77
2023/06/27 05:30:13;;;;;;;6.20;2.00;;;17.00;99.90;;;;;;5052373;28;20408;-77
2023/06/27 05:32:39;;;;;;;6.95;2.22;;;17.10;99.90;;;;;;5052610;28;20037;-77
2023/06/27 05:35:05;;;;;;;5.53;2.00;;;17.20;99.90;;;;;;5050739;28;20033;-77
2023/06/27 05:37:30;;;;;;;5.03;2.22;;;17.20;99.90;;;;;;5051906;28;20049;-77
2023/06/27 05:39:56;;;;;;;7.63;2.42;;;17.30;99.90;;;;;;5051343;28;20049;-78
2023/06/27 05:42:21;;;;;;;6.00;2.35;;;17.30;99.90;;;;;;5048797;28;20044;-77
2023/06/27 05:44:47;;;;;;;5.65;2.20;;;17.40;99.90;;;;;;5051871;28;20048;-77
2023/06/27 05:47:13;;;;;;;11.48;2.33;;;17.40;99.90;;;;;;5052889;28;20484;-77
2023/06/27 05:49:38;;;;;;;6.30;2.38;;;17.50;99.90;;;;;;5051738;28;20045;-78
2023/06/27 05:52:04;;;;;;;6.30;2.03;;;17.60;99.90;;;;;;5035225;28;20029;-76
2023/06/27 05:54:30;;;;;;;6.50;2.10;;;17.60;99.90;;;;;;5050882;28;20033;-78
2023/06/27 05:56:55;;;;;;;5.38;1.70;;;17.80;99.90;;;;;;5051193;28;20094;-77
2023/06/27 05:59:21;;;;;;;7.35;2.08;;;17.80;99.90;;;;;;5050752;28;20045;-78
2023/06/27 06:01:46;;;;;;;5.82;1.90;;;17.80;99.90;;;;;;5052163;28;20037;-77
2023/06/27 06:04:12;;;;;;;7.30;1.80;;;18.00;99.90;;;;;;5052279;28;20033;-78
2023/06/27 06:06:38;;;;;;;6.07;1.80;;;18.10;99.90;;;;;;5053023;28;20067;-78
2023/06/27 06:09:07;;;;;;;8.32;1.85;;;18.30;99.90;;;;;;5053710;28;20037;-77
2023/06/27 06:11:36;;;;;;;7.13;1.50;;;18.40;99.90;;;;;;5052449;28;20037;-78
2023/06/27 06:14:03;;;;;;;9.52;1.90;;;18.50;99.90;;;;;;5053036;28;20091;-77
2023/06/27 06:16:32;;;;;;;7.53;1.65;;;18.50;99.90;;;;;;5036649;28;20039;-76
2023/06/27 06:18:58;;;;;;;3.60;1.48;;;18.60;99.90;;;;;;5053144;28;20068;-77
2023/06/27 06:21:23;;;;;;;8.43;1.83;;;18.60;99.90;;;;;;5052392;28;20071;-75
2023/06/27 06:23:49;;;;;;;7.03;1.80;;;18.70;99.90;;;;;;5050269;28;20040;-77
2023/06/27 06:26:14;;;;;;;4.10;1.20;;;18.70;99.90;;;;;;5052510;28;20476;-76
2023/06/27 06:28:40;;;;;;;8.73;1.60;;;18.80;99.90;;;;;;5047382;28;20043;-77
2023/06/27 06:31:06;;;;;;;4.32;1.40;;;19.00;99.90;;;;;;5051222;28;20037;-77
2023/06/27 06:33:32;;;;;;;5.18;1.50;;;18.90;99.90;;;;;;5055068;28;20044;-77
2023/06/27 06:35:57;;;;;;;5.68;1.50;;;19.10;99.90;;;;;;5069718;28;20111;-78
2023/06/27 06:38:24;;;;;;;6.50;1.38;;;19.10;99.90;;;;;;5060662;28;20064;-78
2023/06/27 06:40:50;;;;;;;7.90;1.80;;;19.20;99.90;;;;;;5053078;28;20076;-76
2023/06/27 06:43:15;;;;;;;5.05;1.48;;;19.40;99.90;;;;;;5050543;28;20059;-78
2023/06/27 06:45:41;;;;;;;4.97;1.45;;;19.30;99.90;;;;;;5048822;28;20060;-77
2023/06/27 06:48:06;;;;;;;7.47;1.50;;;19.50;99.90;;;;;;5069805;28;20120;-77
2023/06/27 06:50:32;;;;;;;8.55;1.75;;;19.60;99.90;;;;;;5055403;28;20041;-77
2023/06/27 06:52:58;;;;;;;3.97;1.08;;;19.80;99.90;;;;;;5056849;28;20048;-78
2023/06/27 06:55:23;;;;;;;5.47;1.30;;;20.00;99.90;;;;;;5055745;28;20044;-78
2023/06/27 06:57:49;;;;;;;2.65;1.20;;;20.10;99.90;;;;;;5073792;28;20515;-78
2023/06/27 07:00:16;;;;;;;6.80;1.23;;;20.20;99.90;;;;;;5054753;28;20045;-76
2023/06/27 07:02:42;;;;;;;5.72;1.23;;;20.10;99.90;;;;;;5052710;28;20098;-78
2023/06/27 07:05:10;;;;;;;8.23;1.15;;;20.10;99.90;;;;;;5054027;28;20037;-77
2023/06/27 07:07:35;;;;;;;5.90;1.20;;;20.30;99.90;;;;;;5045681;28;20044;-76
2023/06/27 07:10:01;;;;;;;6.10;1.40;;;20.40;99.90;;;;;;5060386;28;20447;-78
2023/06/27 07:12:26;;;;;;;3.35;1.08;;;20.30;99.90;;;;;;5067196;28;20029;-77
2023/06/27 07:14:52;;;;;;;5.65;1.00;;;20.30;99.90;;;;;;5050778;28;20629;-76
2023/06/27 07:17:17;;;;;;;5.40;1.05;;;20.10;99.90;;;;;;5058715;28;20049;-78
2023/06/27 07:19:43;;;;;;;5.47;1.20;;;20.10;99.90;;;;;;5049457;28;20041;-78
2023/06/27 07:22:09;;;;;;;4.88;1.10;;;20.10;99.90;;;;;;5050093;28;20033;-78
2023/06/27 07:24:34;;;;;;;7.57;1.58;;;20.10;99.90;;;;;;5049381;28;20044;-77
2023/06/27 07:27:00;;;;;;;5.80;1.40;;;20.10;99.90;;;;;;5046628;28;20037;-79
2023/06/27 07:29:25;;;;;;;4.60;1.10;;;20.00;99.90;;;;;;5060844;28;20121;-80
2023/06/27 07:31:51;;;;;;;5.53;1.20;;;19.90;99.90;;;;;;5049683;28;20041;-79
2023/06/27 07:34:17;;;;;;;4.30;1.00;;;20.00;99.90;;;;;;5049067;28;20028;-79
2023/06/27 07:36:43;;;;;;;6.40;1.40;;;20.00;99.90;;;;;;5031274;28;20112;-80
2023/06/27 07:39:10;;;;;;;7.13;1.30;;;20.20;99.90;;;;;;5046128;28;20061;-79
2023/06/27 07:41:36;;;;;;;4.35;1.00;;;20.20;99.90;;;;;;5049651;28;20064;-78
2023/06/27 07:44:02;;;;;;;5.00;1.40;;;20.10;99.90;;;;;;5042273;28;20068;-79
2023/06/27 07:46:27;;;;;;;6.80;1.13;;;20.00;99.90;;;;;;5053833;28;20029;-80
2023/06/27 07:48:54;;;;;;;8.18;1.10;;;20.10;99.90;;;;;;5031552;28;20045;-80
2023/06/27 07:51:19;;;;;;;4.50;1.42;;;20.20;99.90;;;;;;5054284;28;20045;-79
2023/06/27 07:53:45;;;;;;;4.97;1.30;;;20.40;99.90;;;;;;5046574;28;20064;-80
2023/06/27 07:56:10;;;;;;;4.47;1.10;;;20.70;99.90;;;;;;5046615;28;20099;-80
2023/06/27 07:58:36;;;;;;;4.55;1.33;;;20.90;99.90;;;;;;5039122;28;20033;-79
2023/06/27 08:01:01;;;;;;;4.45;1.02;;;21.10;99.90;;;;;;5045276;28;20047;-80
2023/06/27 08:03:27;;;;;;;5.03;1.25;;;21.20;99.90;;;;;;5046130;28;20071;-80
2023/06/27 08:05:55;;;;;;;5.13;1.23;;;21.30;99.90;;;;;;5049026;28;20048;-78
2023/06/27 08:08:21;;;;;;;3.70;1.02;;;21.40;99.90;;;;;;5042717;28;20048;-77
2023/06/27 08:10:47;;;;;;;4.70;1.10;;;21.40;99.90;;;;;;5047677;28;20040;-79
2023/06/27 08:13:12;;;;;;;6.40;1.10;;;21.20;99.80;;;;;;5047441;28;20416;-78
2023/06/27 08:15:38;;;;;;;5.35;0.98;;;20.90;99.90;;;;;;5048499;28;20036;-81
2023/06/27 08:18:03;;;;;;;7.45;1.15;;;20.80;99.90;;;;;;5048921;28;20506;-80
2023/06/27 08:20:29;;;;;;;9.07;1.23;;;20.80;99.90;;;;;;5050535;28;20556;-80
2023/06/27 08:22:54;;;;;;;4.45;1.20;;;20.90;99.90;;;;;;5032956;28;20041;-78
2023/06/27 08:25:20;;;;;;;5.45;1.00;;;20.80;99.90;;;;;;5049578;28;20381;-77
2023/06/27 08:27:45;;;;;;;7.85;1.15;;;20.70;99.90;;;;;;5049968;28;20060;-80
2023/06/27 08:30:11;;;;;;;4.30;1.60;;;20.70;99.90;;;;;;5049466;28;20041;-76
2023/06/27 08:32:37;;;;;;;4.63;0.90;;;20.80;99.80;;;;;;5047399;28;20044;-79
2023/06/27 08:35:05;;;;;;;6.07;1.20;;;20.80;99.80;;;;;;5050244;28;20035;-79
2023/06/27 08:37:30;;;;;;;3.15;0.93;;;20.90;99.90;;;;;;5049600;28;20108;-75
2023/06/27 08:39:56;;;;;;;6.75;1.50;;;20.70;99.90;;;;;;5051335;28;20041;-78
2023/06/27 08:42:22;;;;;;;11.35;1.55;;;20.50;99.90;;;;;;5049071;28;20095;-79
2023/06/27 08:44:47;;;;;;;5.53;1.10;;;20.50;99.90;;;;;;5048351;28;20060;-79
2023/06/27 08:47:18;;;;;;;5.10;1.30;;;20.60;99.90;;;;;;5049200;28;20053;-79
2023/06/27 08:49:48;;;;;;;6.18;1.58;;;20.80;99.90;;;;;;5048909;28;20056;-79
2023/06/27 08:52:15;;;;;;;5.30;1.00;;;21.10;99.90;;;;;;5060217;28;20071;-77
2023/06/27 08:54:48;;;;;;;5.10;1.33;;;21.40;99.90;;;;;;5050328;28;20033;-81
2023/06/27 08:57:14;;;;;;;5.00;1.23;;;21.50;99.90;;;;;;5050198;28;20045;-78
2023/06/27 08:59:44;;;;;;;3.72;0.88;;;21.40;99.90;;;;;;5050369;28;20041;-80
2023/06/27 09:02:12;;;;;;;3.92;1.02;;;21.10;99.70;;;;;;5066514;28;20040;-80
2023/06/27 09:04:41;;;;;;;4.97;1.00;;;20.90;99.20;;;;;;5049793;28;20048;-78
2023/06/27 09:07:07;;;;;;;3.28;0.80;;;21.10;99.50;;;;;;5032995;28;20056;-78
2023/06/27 09:09:34;;;;;;;3.15;0.77;;;21.10;98.90;;;;;;5049859;28;20245;-80
2023/06/27 09:12:02;;;;;;;2.67;0.90;;;21.40;99.20;;;;;;5050129;28;20130;-80
2023/06/27 09:14:28;;;;;;;4.20;0.90;;;21.50;99.20;;;;;;5049603;28;20162;-79
2023/06/27 09:16:54;;;;;;;3.70;0.90;;;21.50;99.70;;;;;;5051710;28;20060;-79
2023/06/27 09:19:20;;;;;;;3.45;0.90;;;21.50;99.70;;;;;;5053475;28;20033;-79
2023/06/27 09:21:47;;;;;;;5.55;1.20;;;21.40;99.60;;;;;;5053161;28;20071;-77
2023/06/27 09:24:14;;;;;;;4.13;0.90;;;21.30;99.10;;;;;;5052867;28;20037;-80
2023/06/27 09:26:40;;;;;;;4.53;1.00;;;21.30;99.10;;;;;;5036308;28;20036;-78
2023/06/27 09:29:06;;;;;;;4.10;1.00;;;21.30;98.70;;;;;;5053097;28;20036;-78
2023/06/27 09:31:32;;;;;;;3.55;0.95;;;21.40;98.90;;;;;;5054255;28;20472;-79
2023/06/27 09:34:11;;;;;;;3.92;1.23;;;21.40;99.00;;;;;;5052533;28;20044;-78
2023/06/27 09:36:38;;;;;;;4.78;0.90;;;21.40;98.00;;;;;;5053297;28;20036;-79
2023/06/27 09:39:06;;;;;;;6.10;0.98;;;21.50;98.00;;;;;;5052559;28;20127;-79
2023/06/27 09:41:41;;;;;;;3.45;1.13;;;21.70;98.10;;;;;;5052793;28;20123;-79
2023/06/27 09:44:15;;;;;;;5.43;1.05;;;21.80;98.50;;;;;;5032725;28;20045;-78
2023/06/27 09:46:42;;;;;;;3.38;1.00;;;21.80;98.00;;;;;;5048506;28;20065;-77
2023/06/27 09:49:09;;;;;;;9.43;1.10;;;21.70;98.10;;;;;;5051804;28;20040;-79
2023/06/27 09:51:34;;;;;;;5.07;1.50;;;21.80;98.60;;;;;;5050878;28;20044;-78
2023/06/27 09:54:01;;;;;;;4.47;0.98;;;21.90;98.90;;;;;;5051937;28;20037;-79
2023/06/27 09:56:31;;;;;;;4.57;1.08;;;22.00;99.00;;;;;;5052051;28;20041;-79
2023/06/27 09:59:10;;;;;;;3.85;0.80;;;22.20;99.10;;;;;;5069126;28;20044;-79
2023/06/27 10:01:40;;;;;;;3.90;0.90;;;22.30;98.40;;;;;;5068919;28;20337;-80
2023/06/27 10:04:06;;;;;;;5.60;1.10;;;22.50;97.90;;;;;;5068726;28;20064;-79
2023/06/27 10:06:32;;;;;;;3.83;1.20;;;22.40;98.20;;;;;;5069658;28;20037;-78
2023/06/27 10:08:59;;;;;;;3.83;0.95;;;22.20;97.60;;;;;;5069221;28;20037;-80
2023/06/27 10:11:26;;;;;;;2.92;0.90;;;22.10;97.50;;;;;;5069614;28;20045;-80
2023/06/27 10:13:52;;;;;;;4.05;1.10;;;21.80;97.40;;;;;;5051957;28;20044;-80
2023/06/27 10:16:18;;;;;;;4.15;1.30;;;21.80;97.80;;;;;;5069075;28;20124;-79
2023/06/27 10:18:44;;;;;;;4.85;1.20;;;22.00;97.70;;;;;;5069301;28;20444;-79
2023/06/27 10:21:11;;;;;;;3.58;1.00;;;22.10;96.90;;;;;;5069082;28;20048;-78
2023/06/27 10:23:39;;;;;;;3.58;0.98;;;21.90;96.60;;;;;;5068772;28;20076;-77
2023/06/27 10:26:05;;;;;;;4.40;1.15;;;21.80;96.30;;;;;;5068604;28;20073;-78
2023/06/27 10:28:31;;;;;;;4.82;1.05;;;21.90;97.10;;;;;;5050474;28;20076;-78
2023/06/27 10:30:57;;;;;;;6.03;1.25;;;21.80;96.60;;;;;;5050850;28;20041;-78
2023/06/27 10:33:31;;;;;;;4.82;1.15;;;22.00;97.10;;;;;;5051585;28;20045;-79
2023/06/27 10:36:03;;;;;;;5.00;1.20;;;22.30;96.50;;;;;;5052253;28;20083;-78
2023/06/27 10:38:36;;;;;;;7.28;1.05;;;22.30;97.00;;;;;;5053258;28;20118;-80
2023/06/27 10:41:09;;;;;;;3.92;0.95;;;22.40;96.70;;;;;;5052537;28;20459;-80
2023/06/27 10:43:47;;;;;;;3.45;0.95;;;22.40;97.00;;;;;;5052050;28;20048;-80
2023/06/27 10:46:20;;;;;;;5.10;0.90;;;22.40;96.80;;;;;;5052447;28;20072;-79
2023/06/27 10:48:50;;;;;;;7.55;1.40;;;22.40;95.80;;;;;;5051555;28;20053;-80
2023/06/27 10:51:22;;;;;;;6.53;1.00;;;22.60;96.20;;;;;;5049310;28;20041;-79
2023/06/27 10:54:06;;;;;;;3.20;0.82;;;22.80;96.70;;;;;;5048630;28;20436;-79
2023/06/27 10:56:38;;;;;;;2.60;0.98;;;22.90;94.80;;;;;;5059496;28;20487;-79
2023/06/27 10:59:08;;;;;;;4.25;1.00;;;22.90;96.00;;;;;;5049627;28;20047;-80
2023/06/27 11:01:35;;;;;;;4.82;1.10;;;23.00;96.60;;;;;;5049083;28;20041;-78
2023/06/27 11:04:25;;;;;;;3.95;1.00;;;22.80;96.20;;;;;;5048191;28;20044;-80
2023/06/27 11:07:00;;;;;;;4.07;0.93;;;23.10;96.00;;;;;;5051482;28;20123;-77
2023/06/27 11:09:28;;;;;;;4.28;1.02;;;23.30;94.90;;;;;;5050392;28;20045;-79
2023/06/27 11:12:07;;;;;;;5.03;0.93;;;23.30;95.00;;;;;;5050823;28;20043;-79
2023/06/27 11:14:44;;;;;;;4.35;1.17;;;23.10;95.10;;;;;;5049110;28;20665;-81
2023/06/27 11:17:11;;;;;;;4.45;0.90;;;22.80;95.50;;;;;;5057281;28;20479;-78
2023/06/27 11:19:38;;;;;;;3.90;0.95;;;22.80;94.50;;;;;;5049355;28;20037;-79
2023/06/27 11:22:05;;;;;;;5.18;1.00;;;22.60;95.30;;;;;;5065010;28;20122;-79
2023/06/27 11:24:31;;;;;;;5.55;1.02;;;22.90;95.70;;;;;;5049469;28;20048;-78
2023/06/27 11:26:57;;;;;;;3.38;0.80;;;22.80;95.70;;;;;;5050987;28;20059;-78
2023/06/27 11:29:24;;;;;;;3.95;1.20;;;22.80;95.90;;;;;;5050277;28;20075;-80
2023/06/27 11:31:50;;;;;;;4.28;1.10;;;22.40;95.50;;;;;;5049626;28;20045;-79
2023/06/27 11:34:17;;;;;;;3.25;0.90;;;22.20;95.70;;;;;;5050904;28;20128;-80
2023/06/27 11:36:44;;;;;;;3.08;1.00;;;22.10;95.20;;;;;;5050387;28;20037;-79
2023/06/27 11:39:11;;;;;;;5.03;1.00;;;22.00;95.80;;;;;;5049709;28;20056;-78
2023/06/27 11:41:40;;;;;;;3.63;1.00;;;22.10;96.00;;;;;;5049876;28;20534;-80
2023/06/27 11:44:14;;;;;;;4.47;1.17;;;22.00;95.60;;;;;;5050000;28;20064;-80
2023/06/27 11:46:50;;;;;;;4.53;1.05;;;22.00;96.30;;;;;;5050308;28;20414;-79
2023/06/27 11:49:16;;;;;;;4.15;1.10;;;21.90;96.70;;;;;;5033962;28;20071;-80
2023/06/27 11:51:42;;;;;;;5.18;1.40;;;21.80;96.40;;;;;;5050100;28;20120;-82
2023/06/27 11:54:08;;;;;;;9.30;1.40;;;21.60;96.20;;;;;;5050320;28;20446;-79
2023/06/27 11:56:38;;;;;;;5.72;0.88;;;21.60;96.10;;;;;;5050076;28;20033;-78
2023/06/27 11:59:06;;;;;;;4.50;1.27;;;21.60;96.10;;;;;;5059018;28;20045;-80
2023/06/27 12:01:38;;;;;;;3.63;0.90;;;21.70;96.50;;;;;;5050208;28;20154;-80
2023/06/27 12:04:15;;;;;;;7.00;1.48;;;21.70;96.70;;;;;;5049568;28;20058;-80
2023/06/27 12:06:43;;;;;;;3.88;1.17;;;21.80;97.20;;;;;;5049962;28;20056;-79
2023/06/27 12:09:19;;;;;;;4.40;1.08;;;22.10;97.00;;;;;;5049342;28;20040;-79
2023/06/27 12:12:01;;;;;;;3.75;1.27;;;21.90;96.50;;;;;;5044885;28;20468;-79
2023/06/27 12:14:28;;;;;;;4.55;1.40;;;21.90;96.80;;;;;;5049908;28;20049;-79
2023/06/27 12:16:53;;;;;;;3.58;1.30;;;21.80;97.10;;;;;;5063968;28;20037;-79
2023/06/27 12:19:20;;;;;;;4.93;1.10;;;22.00;97.10;;;;;;5065490;28;20152;-79
2023/06/27 12:21:47;;;;;;;2.92;0.95;;;22.20;96.90;;;;;;5049792;28;20429;-79
2023/06/27 12:24:12;;;;;;;4.22;1.30;;;22.30;96.90;;;;;;5032902;28;20051;-80
2023/06/27 12:26:39;;;;;;;5.15;1.20;;;22.30;96.50;;;;;;5041002;28;20033;-80
2023/06/27 12:29:07;;;;;;;3.92;1.10;;;22.30;96.50;;;;;;5048991;28;20505;-79
2023/06/27 12:31:36;;;;;;;4.43;1.25;;;22.30;96.40;;;;;;5048321;28;20077;-81
2023/06/27 12:34:01;;;;;;;5.38;1.17;;;22.20;95.70;;;;;;5048754;28;20044;-80
2023/06/27 12:36:28;;;;;;;5.38;1.35;;;22.20;96.10;;;;;;5048839;28;20037;-79
2023/06/27 12:38:54;;;;;;;6.53;1.08;;;22.20;96.30;;;;;;5032041;28;20044;-79
2023/06/27 12:41:21;;;;;;;3.30;0.75;;;22.00;95.10;;;;;;5049139;28;20166;-79
2023/06/27 12:43:47;;;;;;;4.10;1.00;;;22.00;95.20;;;;;;5049692;28;20159;-79
2023/06/27 12:46:13;;;;;;;2.47;0.70;;;22.00;95.30;;;;;;5037707;28;20045;-79
2023/06/27 12:48:39;;;;;;;3.35;1.00;;;21.90;94.80;;;;;;5048532;28;20210;-79